createdAt,value
2023-04-26T00:19:39.392Z,36.65
2023-04-26T01:19:39.376Z,36.66
2023-04-26T01:39:39.413Z,36.66
2023-04-26T01:59:39.395Z,36.66
2023-04-26T02:19:39.399Z,36.67
2023-04-26T02:39:39.377Z,36.67
2023-04-26T03:19:39.391Z,36.68
2023-04-26T03:39:39.413Z,36.68
2023-04-26T03:59:39.414Z,36.68
2023-04-26T04:19:39.418Z,36.68
2023-04-26T04:39:39.418Z,36.69
2023-04-26T04:59:39.414Z,36.68
2023-04-26T05:19:39.433Z,36.68
2023-04-26T05:39:39.483Z,36.69
2023-04-26T05:59:39.417Z,36.68
2023-04-26T06:19:39.417Z,36.68
2023-04-26T06:39:39.397Z,36.68
2023-04-26T06:59:39.110Z,36.69
2023-04-26T07:19:39.388Z,36.69
2023-04-26T07:39:39.355Z,36.7
2023-04-26T07:59:39.343Z,36.69
2023-04-26T08:19:39.330Z,36.68
2023-04-26T08:39:39.308Z,36.65
2023-04-26T08:59:39.291Z,36.63
2023-04-26T09:19:39.273Z,36.61
2023-04-26T09:39:39.291Z,36.61
2023-04-26T09:59:39.198Z,36.63
2023-04-26T10:19:39.231Z,36.6
2023-04-26T10:39:39.205Z,36.57
2023-04-26T10:59:47.441Z,36.55
2023-04-26T11:19:39.120Z,36.53
2023-04-26T11:39:38.469Z,36.5
2023-04-26T11:59:39.098Z,36.46
2023-04-26T12:19:39.094Z,36.44
2023-04-26T12:39:38.762Z,36.43
2023-04-26T12:59:39.010Z,36.41
2023-04-26T13:19:38.977Z,36.38
2023-04-26T13:39:38.968Z,36.37
2023-04-26T14:19:38.904Z,36.29
2023-04-26T14:39:38.893Z,36.28
2023-04-26T14:59:38.849Z,36.27
2023-04-26T15:19:38.558Z,36.25
2023-04-26T15:59:38.777Z,36.26
2023-04-26T16:19:38.742Z,36.19
2023-04-26T16:39:38.727Z,36.19
2023-04-26T16:59:38.699Z,36.2
2023-04-26T17:19:38.637Z,36.18
2023-04-26T17:39:38.653Z,36.17
2023-04-26T17:59:38.676Z,36.16
2023-04-26T18:19:38.616Z,36.16
2023-04-26T18:39:38.617Z,36.15
2023-04-26T18:59:38.612Z,36.15
2023-04-26T19:19:38.581Z,36.15
2023-04-26T19:39:38.580Z,36.15
2023-04-26T19:59:38.577Z,36.15
2023-04-26T20:19:38.605Z,36.14
2023-04-26T20:39:38.557Z,36.15
2023-04-26T21:19:38.497Z,36.15
2023-04-26T21:39:38.529Z,36.16
2023-04-26T21:59:38.474Z,36.16
2023-04-26T22:19:38.451Z,36.17
2023-04-26T22:39:38.193Z,36.17
2023-04-26T23:19:38.477Z,36.17
2023-04-26T23:39:38.447Z,36.18
2023-04-26T23:59:38.450Z,36.18
